createdAt,value
2023-05-14T00:00:25.847Z,82.06
2023-05-14T00:03:14.355Z,81.62
2023-05-14T00:05:42.625Z,81.63
2023-05-14T00:08:10.556Z,81.72
2023-05-14T00:10:38.665Z,82.40
2023-05-14T00:13:06.630Z,82.91
2023-05-14T00:15:34.715Z,83.42
2023-05-14T00:18:03.109Z,83.54
2023-05-14T00:20:31.285Z,84.21
2023-05-14T00:22:59.330Z,84.50
2023-05-14T00:25:27.617Z,85.24
2023-05-14T00:27:55.536Z,85.02
2023-05-14T00:30:24.187Z,84.69
2023-05-14T00:32:52.356Z,84.08
2023-05-14T00:35:21.940Z,83.89
2023-05-14T00:37:49.934Z,83.72
2023-05-14T00:40:18.394Z,83.26
2023-05-14T00:42:46.465Z,83.53
2023-05-14T00:45:14.842Z,83.62
2023-05-14T00:47:43.739Z,83.54
2023-05-14T00:50:12.777Z,83.56
2023-05-14T00:52:41.470Z,83.48
2023-05-14T00:55:13.028Z,83.38
2023-05-14T00:57:41.039Z,83.18
2023-05-14T01:00:09.768Z,83.54
2023-05-14T01:02:38.241Z,83.94
2023-05-14T01:05:08.335Z,84.59
2023-05-14T01:07:55.344Z,84.67
2023-05-14T01:10:37.477Z,84.36
2023-05-14T01:13:18.528Z,84.54
2023-05-14T01:15:48.132Z,84.70
2023-05-14T01:18:19.166Z,84.92
2023-05-14T01:20:51.531Z,84.90
2023-05-14T01:23:19.925Z,85.14
2023-05-14T01:25:47.915Z,85.38
2023-05-14T01:28:22.014Z,85.38
2023-05-14T01:31:16.520Z,85.41
2023-05-14T01:33:47.939Z,85.23
2023-05-14T01:36:16.448Z,85.17
2023-05-14T01:38:47.259Z,84.85
2023-05-14T01:41:16.661Z,84.66
2023-05-14T01:43:45.713Z,84.54
2023-05-14T01:46:13.703Z,85.09
2023-05-14T01:48:42.007Z,85.37
2023-05-14T01:51:10.046Z,85.18
2023-05-14T01:53:38.039Z,85.23
2023-05-14T01:56:06.312Z,85.20
2023-05-14T01:58:34.489Z,85.13
2023-05-14T02:01:02.499Z,85.14
2023-05-14T02:03:31.295Z,85.42
2023-05-14T02:05:59.982Z,85.11
2023-05-14T02:08:28.805Z,85.20
2023-05-14T02:10:56.952Z,85.21
2023-05-14T02:13:26.621Z,85.70
2023-05-14T02:15:54.691Z,86.02
2023-05-14T02:18:22.951Z,86.16
2023-05-14T02:20:50.876Z,86.51
2023-05-14T02:23:20.629Z,86.51
2023-05-14T02:25:53.662Z,86.61
2023-05-14T02:28:21.569Z,86.90
2023-05-14T02:30:49.761Z,87.11
2023-05-14T02:33:17.868Z,87.10
2023-05-14T02:35:45.914Z,87.26
2023-05-14T02:38:15.112Z,87.32
2023-05-14T02:40:43.176Z,87.34
2023-05-14T02:43:11.410Z,87.21
2023-05-14T02:45:39.456Z,87.31
2023-05-14T02:48:07.956Z,87.07
2023-05-14T02:50:36.281Z,86.91
2023-05-14T02:53:04.228Z,87.09
2023-05-14T02:55:32.324Z,87.15
2023-05-14T02:58:00.497Z,87.15
2023-05-14T03:00:28.441Z,87.05
2023-05-14T03:02:57.242Z,87.14
2023-05-14T03:05:25.839Z,87.14
2023-05-14T03:07:54.219Z,87.02
2023-05-14T03:10:22.479Z,86.83
2023-05-14T03:12:50.682Z,86.70
2023-05-14T03:15:18.948Z,86.65
2023-05-14T03:17:47.096Z,86.77
2023-05-14T03:20:16.079Z,86.78
2023-05-14T03:22:44.303Z,86.89
2023-05-14T03:25:12.412Z,86.74
2023-05-14T03:27:40.366Z,86.83
2023-05-14T03:30:09.021Z,86.61
2023-05-14T03:32:37.632Z,86.55
2023-05-14T03:35:06.587Z,86.44
2023-05-14T03:37:34.663Z,86.15
2023-05-14T03:40:03.453Z,85.89
2023-05-14T03:42:31.728Z,85.80
2023-05-14T03:45:00.022Z,85.71
2023-05-14T03:47:28.301Z,85.45
2023-05-14T03:49:57.474Z,85.31
2023-05-14T03:52:25.647Z,85.19
2023-05-14T03:54:53.616Z,85.14
2023-05-14T03:57:21.897Z,85.06
2023-05-14T03:59:49.964Z,84.99
2023-05-14T04:02:17.975Z,84.83
2023-05-14T04:04:46.050Z,85.00
2023-05-14T04:07:14.282Z,84.83
2023-05-14T04:09:42.251Z,84.64
2023-05-14T04:12:10.321Z,85.04
2023-05-14T04:14:38.391Z,84.84
2023-05-14T04:17:06.400Z,84.95
2023-05-14T04:19:34.549Z,84.57
2023-05-14T04:22:04.762Z,84.37
2023-05-14T04:24:32.758Z,85.01
2023-05-14T04:27:00.864Z,85.05
2023-05-14T04:29:28.932Z,85.35
2023-05-14T04:31:56.928Z,85.33
2023-05-14T04:34:25.000Z,85.35
2023-05-14T04:36:52.983Z,85.35
2023-05-14T04:39:20.927Z,85.50
2023-05-14T04:41:48.928Z,85.56
2023-05-14T04:44:17.393Z,85.78
2023-05-14T04:46:45.585Z,85.97
2023-05-14T04:49:13.554Z,86.31
2023-05-14T04:51:41.917Z,86.77
2023-05-14T04:54:10.241Z,86.91
2023-05-14T04:56:39.187Z,87.04
2023-05-14T04:59:07.269Z,87.06
2023-05-14T05:01:35.252Z,87.48
2023-05-14T05:04:03.445Z,87.42
2023-05-14T05:06:31.787Z,87.68
2023-05-14T05:09:01.927Z,87.64
2023-05-14T05:11:30.355Z,87.57
2023-05-14T05:13:58.575Z,87.45
2023-05-14T05:16:26.746Z,87.51
2023-05-14T05:18:54.998Z,87.41
2023-05-14T05:21:23.190Z,87.31
2023-05-14T05:23:51.157Z,87.07
2023-05-14T05:26:19.267Z,87.24
2023-05-14T05:28:47.343Z,86.98
2023-05-14T05:31:17.608Z,86.80
2023-05-14T05:33:48.149Z,86.65
2023-05-14T05:36:16.292Z,86.55
2023-05-14T05:38:44.196Z,86.42
2023-05-14T05:41:12.365Z,86.61
2023-05-14T05:43:40.496Z,86.58
2023-05-14T05:46:08.592Z,86.64
2023-05-14T05:48:36.788Z,86.64
2023-05-14T05:51:05.060Z,86.54
2023-05-14T05:53:33.136Z,86.59
2023-05-14T05:56:01.064Z,86.54
2023-05-14T05:58:29.379Z,86.59
2023-05-14T06:00:58.183Z,86.47
2023-05-14T06:03:27.162Z,86.32
2023-05-14T06:05:55.130Z,86.08
2023-05-14T06:08:23.125Z,85.86
2023-05-14T06:10:51.272Z,85.56
2023-05-14T06:13:19.449Z,85.69
2023-05-14T06:15:47.356Z,85.54
2023-05-14T06:18:15.392Z,85.69
2023-05-14T06:20:43.449Z,85.31
2023-05-14T06:23:12.488Z,84.91
2023-05-14T06:25:40.462Z,85.10
2023-05-14T06:28:08.344Z,85.05
2023-05-14T06:30:36.458Z,84.81
2023-05-14T06:33:04.402Z,84.70
2023-05-14T06:35:32.919Z,84.47
2023-05-14T06:38:00.979Z,84.11
2023-05-14T06:40:29.036Z,83.97
2023-05-14T06:42:57.031Z,84.22
2023-05-14T06:45:25.364Z,84.01
2023-05-14T06:47:53.393Z,84.26
2023-05-14T06:50:21.825Z,84.64
2023-05-14T06:52:50.329Z,84.46
2023-05-14T06:55:18.400Z,84.52
2023-05-14T06:57:46.579Z,84.12
2023-05-14T07:00:15.785Z,83.89
2023-05-14T07:02:43.788Z,84.07
2023-05-14T07:05:12.000Z,83.65
2023-05-14T07:07:39.899Z,83.58
2023-05-14T07:10:08.297Z,83.87
2023-05-14T07:12:36.243Z,83.69
2023-05-14T07:15:05.336Z,83.01
2023-05-14T07:17:33.453Z,83.06
2023-05-14T07:20:01.592Z,82.60
2023-05-14T07:22:29.645Z,82.40
2023-05-14T07:24:57.736Z,82.35
2023-05-14T07:27:26.095Z,82.08
2023-05-14T07:29:54.075Z,82.18
2023-05-14T07:32:22.136Z,82.26
2023-05-14T07:34:50.286Z,81.88
2023-05-14T07:37:19.098Z,82.05
2023-05-14T07:39:46.969Z,81.73
2023-05-14T07:42:24.629Z,81.47
2023-05-14T07:45:00.326Z,81.22
2023-05-14T07:47:28.401Z,81.01
2023-05-14T07:49:57.403Z,81.21
2023-05-14T07:52:25.657Z,80.98
2023-05-14T07:54:53.850Z,81.00
2023-05-14T07:57:22.261Z,81.13
2023-05-14T07:59:50.581Z,80.91
2023-05-14T08:02:19.008Z,80.70
2023-05-14T08:04:46.989Z,80.64
2023-05-14T08:07:15.003Z,80.28
2023-05-14T08:09:43.280Z,80.11
2023-05-14T08:12:11.451Z,79.94
2023-05-14T08:14:39.446Z,80.01
2023-05-14T08:17:07.427Z,79.50
2023-05-14T08:19:35.682Z,79.16
2023-05-14T08:22:04.048Z,78.59
2023-05-14T08:24:32.326Z,78.13
2023-05-14T08:27:00.611Z,77.89
2023-05-14T08:29:28.880Z,78.13
2023-05-14T08:31:57.992Z,77.17
2023-05-14T08:34:26.264Z,77.28
2023-05-14T08:36:55.352Z,77.07
2023-05-14T08:39:23.418Z,77.17
2023-05-14T08:41:52.118Z,76.89
2023-05-14T08:44:25.925Z,76.24
2023-05-14T08:46:54.708Z,75.73
2023-05-14T08:49:43.386Z,75.73
2023-05-14T08:52:12.063Z,75.66
2023-05-14T08:54:40.619Z,75.68
2023-05-14T08:57:11.764Z,75.97
2023-05-14T08:59:39.736Z,75.90
2023-05-14T09:02:10.278Z,75.77
2023-05-14T09:04:39.886Z,75.09
2023-05-14T09:07:07.909Z,74.95
2023-05-14T09:09:36.737Z,74.98
2023-05-14T09:12:06.443Z,74.43
2023-05-14T09:14:34.582Z,74.59
2023-05-14T09:17:03.505Z,74.16
2023-05-14T09:19:31.740Z,74.43
2023-05-14T09:22:00.077Z,74.71
2023-05-14T09:24:31.818Z,74.61
2023-05-14T09:26:59.899Z,74.12
2023-05-14T09:29:29.889Z,73.80
2023-05-14T09:32:00.398Z,73.01
2023-05-14T09:34:30.858Z,72.89
2023-05-14T09:37:04.527Z,73.17
2023-05-14T09:39:34.373Z,72.80
2023-05-14T09:42:03.369Z,72.58
2023-05-14T09:44:31.965Z,72.27
2023-05-14T09:46:59.991Z,71.74
2023-05-14T09:49:28.524Z,72.06
2023-05-14T09:51:58.108Z,71.55
2023-05-14T09:54:27.417Z,71.60
2023-05-14T09:56:55.994Z,71.10
2023-05-14T09:59:23.931Z,71.31
2023-05-14T10:01:52.650Z,71.85
2023-05-14T10:04:21.041Z,71.77
2023-05-14T10:06:52.071Z,71.84
2023-05-14T10:09:23.363Z,71.33
2023-05-14T10:11:54.358Z,71.36
2023-05-14T10:14:29.442Z,71.17
2023-05-14T10:17:00.883Z,70.78
2023-05-14T10:19:35.261Z,70.52
2023-05-14T10:22:07.045Z,69.72
2023-05-14T10:24:38.928Z,69.22
2023-05-14T10:27:07.365Z,69.06
2023-05-14T10:29:37.572Z,68.60
2023-05-14T10:32:07.893Z,68.87
2023-05-14T10:34:46.687Z,68.31
2023-05-14T10:37:18.919Z,68.39
2023-05-14T10:39:48.338Z,68.12
2023-05-14T10:42:40.984Z,67.87
2023-05-14T10:45:13.212Z,67.69
2023-05-14T10:47:47.203Z,68.13
2023-05-14T10:50:16.038Z,67.53
2023-05-14T10:52:47.175Z,67.03
2023-05-14T10:55:16.931Z,66.85
2023-05-14T10:57:46.630Z,67.15
2023-05-14T11:00:15.158Z,67.21
2023-05-14T11:02:45.139Z,67.01
2023-05-14T11:05:17.003Z,66.42
2023-05-14T11:07:47.371Z,65.69
2023-05-14T11:10:17.965Z,64.82
2023-05-14T11:12:47.833Z,64.62
2023-05-14T11:15:21.938Z,65.41
2023-05-14T11:17:51.923Z,64.96
2023-05-14T11:20:21.438Z,64.72
2023-05-14T11:22:51.901Z,65.80
2023-05-14T11:25:21.912Z,65.57
2023-05-14T11:27:50.561Z,64.63
2023-05-14T11:30:19.993Z,64.73
2023-05-14T11:32:50.036Z,64.41
2023-05-14T11:35:18.804Z,64.91
2023-05-14T11:37:52.464Z,65.14
2023-05-14T11:40:20.870Z,64.64
2023-05-14T11:42:53.482Z,65.15
2023-05-14T11:45:26.688Z,65.19
2023-05-14T11:47:55.112Z,65.10
2023-05-14T11:50:23.645Z,65.06
2023-05-14T11:52:57.478Z,65.39
2023-05-14T11:55:25.893Z,65.49
2023-05-14T11:57:54.367Z,65.82
2023-05-14T12:00:24.072Z,65.66
2023-05-14T12:02:52.961Z,65.30
2023-05-14T12:05:21.264Z,64.88
2023-05-14T12:07:49.599Z,65.17
2023-05-14T12:10:17.597Z,65.35
2023-05-14T12:12:47.987Z,65.64
2023-05-14T12:15:17.239Z,64.39
2023-05-14T12:17:54.004Z,63.76
2023-05-14T12:20:23.675Z,62.61
2023-05-14T12:22:51.940Z,61.81
2023-05-14T12:25:20.051Z,61.97
2023-05-14T12:27:48.024Z,61.70
2023-05-14T12:30:21.905Z,62.55
2023-05-14T12:32:52.783Z,62.94
2023-05-14T12:35:22.886Z,62.77
2023-05-14T12:37:51.284Z,62.15
2023-05-14T12:40:19.399Z,62.14
2023-05-14T12:42:47.556Z,61.55
2023-05-14T12:45:15.581Z,61.10
2023-05-14T12:47:43.748Z,61.39
2023-05-14T12:50:12.041Z,61.97
2023-05-14T12:52:40.241Z,62.01
2023-05-14T12:55:09.756Z,61.47
2023-05-14T12:57:39.506Z,62.14
2023-05-14T13:00:21.219Z,62.25
2023-05-14T13:02:49.637Z,62.65
2023-05-14T13:05:18.033Z,62.66
2023-05-14T13:07:46.090Z,62.08
2023-05-14T13:10:14.427Z,61.82
2023-05-14T13:12:42.328Z,61.85
2023-05-14T13:15:11.206Z,62.33
2023-05-14T13:17:40.524Z,62.62
2023-05-14T13:20:09.367Z,62.57
2023-05-14T13:22:37.301Z,62.30
2023-05-14T13:25:06.132Z,62.89
2023-05-14T13:27:36.040Z,62.81
2023-05-14T13:30:04.573Z,63.82
2023-05-14T13:32:32.767Z,63.77
2023-05-14T13:35:01.007Z,64.45
2023-05-14T13:37:29.046Z,64.47
2023-05-14T13:39:57.127Z,64.43
2023-05-14T13:42:25.709Z,65.04
2023-05-14T13:44:53.640Z,65.39
2023-05-14T13:47:21.635Z,64.90
2023-05-14T13:49:49.918Z,64.33
2023-05-14T13:52:17.821Z,63.48
2023-05-14T13:54:46.378Z,63.62
2023-05-14T13:57:15.458Z,64.23
2023-05-14T13:59:43.638Z,64.36
2023-05-14T14:02:11.911Z,64.31
2023-05-14T14:04:39.861Z,64.34
2023-05-14T14:07:09.189Z,64.16
2023-05-14T14:09:37.155Z,64.42
2023-05-14T14:12:06.502Z,63.79
2023-05-14T14:14:34.641Z,64.22
2023-05-14T14:17:02.708Z,64.23
2023-05-14T14:19:30.684Z,64.54
2023-05-14T14:21:58.742Z,64.30
2023-05-14T14:24:27.017Z,63.66
2023-05-14T14:26:55.041Z,63.86
2023-05-14T14:29:24.033Z,64.36
2023-05-14T14:31:52.337Z,65.11
2023-05-14T14:34:21.353Z,65.65
2023-05-14T14:36:49.401Z,65.71
2023-05-14T14:39:17.714Z,65.89
2023-05-14T14:41:45.980Z,66.37
2023-05-14T14:44:14.048Z,66.40
2023-05-14T14:46:43.078Z,66.92
2023-05-14T14:49:11.324Z,67.49
2023-05-14T14:51:39.704Z,67.70
2023-05-14T14:54:07.971Z,67.96
2023-05-14T14:56:35.999Z,67.77
2023-05-14T14:59:04.121Z,67.97
2023-05-14T15:01:32.346Z,68.31
2023-05-14T15:04:00.469Z,68.79
2023-05-14T15:06:28.537Z,69.17
2023-05-14T15:08:56.816Z,69.47
2023-05-14T15:11:24.942Z,69.88
2023-05-14T15:13:52.969Z,70.24
2023-05-14T15:16:21.178Z,71.01
2023-05-14T15:18:49.409Z,71.26
2023-05-14T15:21:17.994Z,71.59
2023-05-14T15:23:46.003Z,71.67
2023-05-14T15:26:14.244Z,71.67
2023-05-14T15:28:42.825Z,71.97
2023-05-14T15:31:10.850Z,71.82
2023-05-14T15:33:39.173Z,72.07
2023-05-14T15:36:08.374Z,72.57
2023-05-14T15:38:36.542Z,72.62
2023-05-14T15:41:05.692Z,72.53
2023-05-14T15:43:33.679Z,72.35
2023-05-14T15:46:01.816Z,72.47
2023-05-14T15:48:30.098Z,72.80
2023-05-14T15:50:58.887Z,73.00
2023-05-14T15:53:26.970Z,72.70
2023-05-14T15:55:55.190Z,72.77
2023-05-14T15:58:23.113Z,72.88
2023-05-14T16:00:51.340Z,73.15
2023-05-14T16:03:19.593Z,73.55
2023-05-14T16:05:48.651Z,73.64
2023-05-14T16:08:16.674Z,73.93
2023-05-14T16:10:44.643Z,74.12
2023-05-14T16:13:12.612Z,73.84
2023-05-14T16:15:40.622Z,74.05
2023-05-14T16:18:08.621Z,73.72
2023-05-14T16:20:36.622Z,74.09
2023-05-14T16:23:05.004Z,74.40
2023-05-14T16:25:33.100Z,74.38
2023-05-14T16:28:01.191Z,74.21
2023-05-14T16:30:29.696Z,74.37
2023-05-14T16:32:57.833Z,74.24
2023-05-14T16:35:26.186Z,73.96
2023-05-14T16:37:54.674Z,74.36
2023-05-14T16:40:23.641Z,74.89
2023-05-14T16:42:52.134Z,75.23
2023-05-14T16:45:20.098Z,75.47
2023-05-14T16:47:48.302Z,75.94
2023-05-14T16:50:16.648Z,75.78
2023-05-14T16:52:44.775Z,75.96
2023-05-14T16:55:12.910Z,76.11
2023-05-14T16:57:40.964Z,76.20
2023-05-14T17:00:12.517Z,76.29
2023-05-14T17:02:41.027Z,76.83
2023-05-14T17:05:09.485Z,77.22
2023-05-14T17:07:39.105Z,77.45
2023-05-14T17:10:07.891Z,77.45
2023-05-14T17:12:35.949Z,77.47
2023-05-14T17:15:06.685Z,77.25
2023-05-14T17:17:34.766Z,77.30
2023-05-14T17:20:05.954Z,77.13
2023-05-14T17:22:34.496Z,77.56
2023-05-14T17:25:02.783Z,78.06
2023-05-14T17:27:33.412Z,78.53
2023-05-14T17:30:01.566Z,78.17
2023-05-14T17:32:31.366Z,78.60
2023-05-14T17:34:59.606Z,78.63
2023-05-14T17:37:27.587Z,78.57
2023-05-14T17:39:55.790Z,78.70
2023-05-14T17:42:23.863Z,78.60
2023-05-14T17:44:51.940Z,79.06
2023-05-14T17:47:20.717Z,79.46
2023-05-14T17:49:48.898Z,79.57
2023-05-14T17:52:16.995Z,79.44
2023-05-14T17:54:45.156Z,79.57
2023-05-14T17:57:13.315Z,79.64
2023-05-14T17:59:41.604Z,79.69
2023-05-14T18:02:09.577Z,79.34
2023-05-14T18:04:37.697Z,79.35
2023-05-14T18:07:06.029Z,79.64
2023-05-14T18:09:34.161Z,79.71
2023-05-14T18:12:02.275Z,79.67
2023-05-14T18:14:30.350Z,79.78
2023-05-14T18:16:58.440Z,79.82
2023-05-14T18:19:26.493Z,79.89
2023-05-14T18:21:55.627Z,79.32
2023-05-14T18:24:23.970Z,79.56
2023-05-14T18:26:52.043Z,79.61
2023-05-14T18:29:20.143Z,79.69
2023-05-14T18:31:48.134Z,79.56
2023-05-14T18:34:17.097Z,79.34
2023-05-14T18:36:45.151Z,79.71
2023-05-14T18:39:13.216Z,79.78
2023-05-14T18:41:41.109Z,80.04
2023-05-14T18:44:09.111Z,80.08
2023-05-14T18:46:37.317Z,79.76
2023-05-14T18:49:05.848Z,79.89
2023-05-14T18:51:34.391Z,79.96
2023-05-14T18:54:02.404Z,80.09
2023-05-14T18:56:30.790Z,80.16
2023-05-14T18:58:58.749Z,80.57
2023-05-14T19:01:26.780Z,80.84
2023-05-14T19:03:55.025Z,80.69
2023-05-14T19:06:23.450Z,81.20
2023-05-14T19:08:51.818Z,81.14
2023-05-14T19:11:19.844Z,80.96
2023-05-14T19:13:49.613Z,81.07
2023-05-14T19:16:17.696Z,81.11
2023-05-14T19:18:45.981Z,81.13
2023-05-14T19:21:15.396Z,81.03
2023-05-14T19:23:43.528Z,81.30
2023-05-14T19:26:11.662Z,81.40
2023-05-14T19:28:39.980Z,81.55
2023-05-14T19:31:07.985Z,81.71
2023-05-14T19:33:36.046Z,81.69
2023-05-14T19:36:04.906Z,81.70
2023-05-14T19:38:33.184Z,81.47
2023-05-14T19:41:01.170Z,81.49
2023-05-14T19:43:29.126Z,81.44
2023-05-14T19:45:58.015Z,81.65
2023-05-14T19:48:27.415Z,81.55
2023-05-14T19:50:55.683Z,81.57
2023-05-14T19:53:30.004Z,81.39
2023-05-14T19:55:58.283Z,81.23
2023-05-14T19:58:26.728Z,81.00
2023-05-14T20:00:57.353Z,80.95
2023-05-14T20:03:28.113Z,80.20
2023-05-14T20:05:56.511Z,79.75
2023-05-14T20:08:25.086Z,79.87
2023-05-14T20:10:53.061Z,79.88
2023-05-14T20:13:25.003Z,79.60
2023-05-14T20:15:55.274Z,79.72
2023-05-14T20:18:23.422Z,79.69
2023-05-14T20:20:52.001Z,79.54
2023-05-14T20:23:20.997Z,79.66
2023-05-14T20:25:49.170Z,79.72
2023-05-14T20:28:17.075Z,79.55
2023-05-14T20:30:46.416Z,79.58
2023-05-14T20:33:15.142Z,79.90
2023-05-14T20:35:44.134Z,80.21
2023-05-14T20:38:13.630Z,80.36
2023-05-14T20:40:41.696Z,80.47
2023-05-14T20:43:09.769Z,80.69
2023-05-14T20:45:38.153Z,80.90
2023-05-14T20:48:12.130Z,81.16
2023-05-14T20:50:40.094Z,81.11
2023-05-14T20:53:08.142Z,81.06
2023-05-14T20:55:36.279Z,81.24
2023-05-14T20:58:04.254Z,80.79
2023-05-14T21:00:32.344Z,80.61
2023-05-14T21:03:00.593Z,80.18
2023-05-14T21:05:29.169Z,79.92
2023-05-14T21:07:57.206Z,80.07
2023-05-14T21:10:26.014Z,80.05
2023-05-14T21:12:54.519Z,79.72
2023-05-14T21:15:23.088Z,79.62
2023-05-14T21:17:52.561Z,79.70
2023-05-14T21:20:20.699Z,79.85
2023-05-14T21:22:48.752Z,79.76
2023-05-14T21:25:16.883Z,79.69
2023-05-14T21:27:44.823Z,79.41
2023-05-14T21:30:13.383Z,79.33
2023-05-14T21:32:41.717Z,79.21
2023-05-14T21:35:10.166Z,79.64
2023-05-14T21:37:39.932Z,79.86
2023-05-14T21:40:12.535Z,79.82
2023-05-14T21:42:40.997Z,80.22
2023-05-14T21:45:09.576Z,79.92
2023-05-14T21:47:38.220Z,80.07
2023-05-14T21:50:07.153Z,80.09
2023-05-14T21:52:35.482Z,80.34
2023-05-14T21:55:04.156Z,80.56
2023-05-14T21:57:34.492Z,80.69
2023-05-14T22:00:07.700Z,80.81
2023-05-14T22:02:35.850Z,81.00
2023-05-14T22:05:05.300Z,80.89
2023-05-14T22:07:33.312Z,80.88
2023-05-14T22:10:01.567Z,81.17
2023-05-14T22:12:29.703Z,80.88
2023-05-14T22:14:57.885Z,80.81
2023-05-14T22:17:28.164Z,81.12
2023-05-14T22:19:56.654Z,81.38
2023-05-14T22:22:24.629Z,81.41
2023-05-14T22:24:52.600Z,81.41
2023-05-14T22:27:20.821Z,81.33
2023-05-14T22:29:48.758Z,81.05
2023-05-14T22:32:16.825Z,81.14
2023-05-14T22:34:44.861Z,81.10
2023-05-14T22:37:13.108Z,81.13
2023-05-14T22:39:41.287Z,81.34
2023-05-14T22:42:09.367Z,81.32
2023-05-14T22:44:37.426Z,81.67
2023-05-14T22:47:05.458Z,81.74
2023-05-14T22:49:33.575Z,81.72
2023-05-14T22:52:01.702Z,81.67
2023-05-14T22:54:29.661Z,81.49
2023-05-14T22:56:57.889Z,81.35
2023-05-14T22:59:26.113Z,81.53
2023-05-14T23:01:54.154Z,81.15
2023-05-14T23:04:22.677Z,80.88
2023-05-14T23:06:50.902Z,80.84
2023-05-14T23:09:19.168Z,81.03
2023-05-14T23:11:47.239Z,80.94
2023-05-14T23:14:15.302Z,81.07
2023-05-14T23:16:43.591Z,81.16
2023-05-14T23:19:11.748Z,81.28
2023-05-14T23:21:40.001Z,81.09
2023-05-14T23:24:08.188Z,80.98
2023-05-14T23:26:36.491Z,81.19
2023-05-14T23:29:04.416Z,80.99
2023-05-14T23:31:32.470Z,81.57
2023-05-14T23:34:01.018Z,81.53
2023-05-14T23:36:31.540Z,81.62
2023-05-14T23:39:00.136Z,81.85
2023-05-14T23:41:28.134Z,81.68
2023-05-14T23:43:56.155Z,81.79
2023-05-14T23:46:24.540Z,81.53
2023-05-14T23:48:57.161Z,81.94
2023-05-14T23:51:27.647Z,82.15
2023-05-14T23:53:58.537Z,82.24
2023-05-14T23:56:29.203Z,82.01
2023-05-14T23:58:57.801Z,82.10
